Time;durP1;ratioP1;P1;durP2;ratioP2;P2;SDS_P1;SDS_P2;PMS_P1;PMS_P2;Temp;Humidity;BMP_temperature;BMP_pressure;BME280_temperature;BME280_humidity;BME280_pressure;Samples;Min_cycle;Max_cycle;Signal;HPM_P1;HPM_P2
2021/06/19 00:02:06;;;;;;;6.20;4.20;;;;;;;;;;5052562;28;20153;-65
2021/06/19 00:04:31;;;;;;;5.32;4.35;;;;;;;;;;5048399;28;20041;-65
2021/06/19 00:06:58;;;;;;;5.80;4.70;;;;;;;;;;5050917;28;20025;-65
2021/06/19 00:09:23;;;;;;;5.13;4.35;;;;;;;;;;5052194;28;20038;-65
2021/06/19 00:11:49;;;;;;;4.75;4.18;;;;;;;;;;5049950;28;20033;-65
2021/06/19 00:14:14;;;;;;;7.85;4.63;;;;;;;;;;5052096;28;22625;-66
2021/06/19 00:16:39;;;;;;;4.78;4.13;;;;;;;;;;5032363;28;20022;-65
2021/06/19 00:19:05;;;;;;;5.78;4.30;;;;;;;;;;4999072;28;20817;-65
2021/06/19 00:21:30;;;;;;;5.05;4.07;;;;;;;;;;5049809;28;20052;-66
2021/06/19 00:23:56;;;;;;;7.03;4.03;;;;;;;;;;5051562;28;20032;-67
2021/06/19 00:26:21;;;;;;;4.53;3.78;;;;;;;;;;5049962;28;20375;-67
2021/06/19 00:28:47;;;;;;;6.78;3.90;;;;;;;;;;5050401;28;20041;-68
2021/06/19 00:31:12;;;;;;;7.45;3.92;;;;;;;;;;5052929;28;20033;-68
2021/06/19 00:33:38;;;;;;;5.75;3.90;;;;;;;;;;5052056;28;20036;-68
2021/06/19 00:36:03;;;;;;;5.35;3.88;;;;;;;;;;5050359;28;20394;-68
2021/06/19 00:38:29;;;;;;;5.70;4.15;;;;;;;;;;5051656;28;20038;-68
2021/06/19 00:40:54;;;;;;;5.78;3.60;;;;;;;;;;5050923;28;20490;-68
2021/06/19 00:43:20;;;;;;;8.38;3.90;;;;;;;;;;5050630;28;20546;-67
2021/06/19 00:45:45;;;;;;;6.97;3.60;;;;;;;;;;5047906;28;20115;-68
2021/06/19 00:48:11;;;;;;;5.65;3.75;;;;;;;;;;5049688;28;20037;-68
2021/06/19 00:50:38;;;;;;;5.97;3.70;;;;;;;;;;5035470;28;20040;-68
2021/06/19 00:53:03;;;;;;;5.07;3.72;;;;;;;;;;5049756;28;20049;-68
2021/06/19 00:55:29;;;;;;;6.30;3.88;;;;;;;;;;5032339;28;20584;-68
2021/06/19 00:57:55;;;;;;;4.45;3.55;;;;;;;;;;5034984;28;20474;-68
2021/06/19 01:00:21;;;;;;;5.72;3.53;;;;;;;;;;5017347;28;20037;-68
2021/06/19 01:02:47;;;;;;;4.88;3.45;;;;;;;;;;5043046;28;20026;-68
2021/06/19 01:05:13;;;;;;;5.78;3.70;;;;;;;;;;5049181;28;20033;-68
2021/06/19 01:07:38;;;;;;;4.97;3.55;;;;;;;;;;5032236;28;20599;-68
2021/06/19 01:10:05;;;;;;;4.15;3.42;;;;;;;;;;5049625;28;20667;-67
2021/06/19 01:12:31;;;;;;;5.35;3.78;;;;;;;;;;5033463;28;20025;-68
2021/06/19 01:14:57;;;;;;;6.03;3.20;;;;;;;;;;5033544;28;20029;-68
2021/06/19 01:17:22;;;;;;;6.35;3.60;;;;;;;;;;5050292;28;20041;-67
2021/06/19 01:20:10;;;;;;;7.05;3.90;;;;;;;;;;5031652;28;20042;-68
2021/06/19 01:22:40;;;;;;;6.63;3.60;;;;;;;;;;5050824;28;20037;-65
2021/06/19 01:25:07;;;;;;;5.22;3.17;;;;;;;;;;5033175;28;20251;-66
2021/06/19 01:27:33;;;;;;;6.80;3.22;;;;;;;;;;5051946;28;20045;-65
2021/06/19 01:30:05;;;;;;;6.05;3.28;;;;;;;;;;5032406;28;20073;-65
2021/06/19 01:32:33;;;;;;;7.25;3.50;;;;;;;;;;5066622;28;20025;-65
2021/06/19 01:34:59;;;;;;;6.68;3.55;;;;;;;;;;5016480;28;20044;-66
2021/06/19 01:37:24;;;;;;;5.32;3.40;;;;;;;;;;5050816;28;20083;-65
2021/06/19 01:39:50;;;;;;;4.75;3.45;;;;;;;;;;5049407;28;20095;-66
2021/06/19 01:42:15;;;;;;;5.65;3.20;;;;;;;;;;5048759;28;20056;-65
2021/06/19 01:44:40;;;;;;;4.50;3.13;;;;;;;;;;5050126;28;20037;-65
2021/06/19 01:47:06;;;;;;;4.60;2.90;;;;;;;;;;5048987;28;20044;-65
2021/06/19 01:49:35;;;;;;;5.65;3.47;;;;;;;;;;5033404;28;20076;-65
2021/06/19 01:52:01;;;;;;;5.35;3.40;;;;;;;;;;5018038;28;20039;-66
2021/06/19 01:54:27;;;;;;;6.15;3.30;;;;;;;;;;5031223;28;20044;-66
2021/06/19 01:56:52;;;;;;;4.68;3.35;;;;;;;;;;5050108;28;20055;-66
2021/06/19 01:59:18;;;;;;;5.53;3.17;;;;;;;;;;5033566;28;20048;-65
2021/06/19 02:01:43;;;;;;;4.60;3.20;;;;;;;;;;5052706;28;20039;-65
2021/06/19 02:06:54;;;;;;;5.60;2.78;;;;;;;;;;1646433;22;20145;-65
2021/06/19 02:09:20;;;;;;;5.60;3.38;;;;;;;;;;4984229;28;20042;-66
2021/06/19 02:11:45;;;;;;;6.85;3.35;;;;;;;;;;4983348;28;20030;-66
2021/06/19 02:14:15;;;;;;;6.10;3.08;;;;;;;;;;5004891;28;39677;-66
2021/06/19 02:16:41;;;;;;;4.63;3.00;;;;;;;;;;5005193;28;20096;-65
2021/06/19 02:19:07;;;;;;;6.13;3.40;;;;;;;;;;5005817;28;20124;-66
2021/06/19 02:21:32;;;;;;;5.57;3.38;;;;;;;;;;4987715;28;20034;-66
2021/06/19 02:23:58;;;;;;;5.93;3.22;;;;;;;;;;5004746;28;21039;-65
2021/06/19 02:26:23;;;;;;;5.35;3.42;;;;;;;;;;4965213;28;20041;-65
2021/06/19 02:28:49;;;;;;;5.85;3.28;;;;;;;;;;4986427;28;20050;-66
2021/06/19 02:31:14;;;;;;;4.55;3.00;;;;;;;;;;4970293;28;20584;-66
2021/06/19 02:33:40;;;;;;;6.55;3.50;;;;;;;;;;5003762;28;20122;-66
2021/06/19 02:36:05;;;;;;;6.53;3.13;;;;;;;;;;5004342;28;20565;-65
2021/06/19 02:38:31;;;;;;;8.00;3.60;;;;;;;;;;5004386;28;20426;-66
2021/06/19 02:40:56;;;;;;;3.58;2.75;;;;;;;;;;4994255;28;20405;-65
2021/06/19 02:43:23;;;;;;;6.25;2.83;;;;;;;;;;5004331;28;20026;-65
2021/06/19 02:45:49;;;;;;;5.43;2.97;;;;;;;;;;5003941;28;20050;-66
2021/06/19 02:48:14;;;;;;;4.18;2.50;;;;;;;;;;4985582;28;20049;-65
2021/06/19 02:50:41;;;;;;;5.97;3.17;;;;;;;;;;5004388;28;20030;-66
2021/06/19 02:53:06;;;;;;;5.25;2.97;;;;;;;;;;5003431;28;20096;-65
2021/06/19 02:55:33;;;;;;;4.65;3.00;;;;;;;;;;4973170;28;20088;-66
2021/06/19 02:58:00;;;;;;;6.00;3.10;;;;;;;;;;4979738;28;20030;-65
2021/06/19 03:00:25;;;;;;;6.03;3.13;;;;;;;;;;4986183;28;20042;-66
2021/06/19 03:02:51;;;;;;;4.40;3.03;;;;;;;;;;5004506;28;20034;-66
2021/06/19 03:05:22;;;;;;;4.03;2.60;;;;;;;;;;5003714;28;20038;-66
2021/06/19 03:07:47;;;;;;;4.10;2.88;;;;;;;;;;5003137;28;20030;-66
2021/06/19 03:10:18;;;;;;;4.65;3.03;;;;;;;;;;4968324;28;20069;-66
2021/06/19 03:12:43;;;;;;;4.03;3.03;;;;;;;;;;5003068;28;20121;-66
2021/06/19 03:15:09;;;;;;;6.00;2.90;;;;;;;;;;5003471;28;20173;-66
2021/06/19 03:17:35;;;;;;;4.70;2.90;;;;;;;;;;4985287;28;20031;-66
2021/06/19 03:20:00;;;;;;;4.80;2.70;;;;;;;;;;5003125;28;20042;-66
2021/06/19 03:22:26;;;;;;;5.68;3.13;;;;;;;;;;5003632;28;20057;-67
2021/06/19 03:24:51;;;;;;;3.63;2.63;;;;;;;;;;4984993;28;20041;-67
2021/06/19 03:27:18;;;;;;;4.68;3.10;;;;;;;;;;5002513;28;20041;-67
2021/06/19 03:29:44;;;;;;;5.07;2.90;;;;;;;;;;5003234;28;20346;-66
2021/06/19 03:32:09;;;;;;;4.10;2.30;;;;;;;;;;5002592;28;20081;-66
2021/06/19 03:34:37;;;;;;;3.45;2.63;;;;;;;;;;4985656;28;20182;-67
2021/06/19 03:37:02;;;;;;;4.68;2.45;;;;;;;;;;4985368;28;20038;-67
2021/06/19 03:39:28;;;;;;;3.58;2.60;;;;;;;;;;4978173;28;20070;-67
2021/06/19 03:41:54;;;;;;;5.28;2.80;;;;;;;;;;4985862;28;20022;-67
2021/06/19 03:44:21;;;;;;;4.75;3.05;;;;;;;;;;4969825;28;20418;-67
2021/06/19 03:46:46;;;;;;;3.90;2.80;;;;;;;;;;4943472;28;20069;-67
2021/06/19 03:49:12;;;;;;;3.67;2.45;;;;;;;;;;5001694;28;20053;-66
2021/06/19 03:51:37;;;;;;;5.15;2.83;;;;;;;;;;4980425;28;20038;-67
2021/06/19 03:54:03;;;;;;;4.40;2.88;;;;;;;;;;4984922;28;20042;-66
2021/06/19 03:56:28;;;;;;;4.63;2.60;;;;;;;;;;5002277;28;20061;-66
2021/06/19 03:58:54;;;;;;;3.88;2.38;;;;;;;;;;5002539;28;20038;-66
2021/06/19 04:01:19;;;;;;;4.70;2.53;;;;;;;;;;4967936;28;20359;-67
2021/06/19 04:03:45;;;;;;;3.47;2.15;;;;;;;;;;5002686;28;20434;-67
2021/06/19 04:06:10;;;;;;;4.25;2.55;;;;;;;;;;4968009;28;20556;-66
2021/06/19 04:08:35;;;;;;;3.03;2.25;;;;;;;;;;4982173;28;20041;-67
2021/06/19 04:11:01;;;;;;;4.38;2.55;;;;;;;;;;5000932;28;20034;-66
2021/06/19 04:13:26;;;;;;;3.28;2.38;;;;;;;;;;5001126;28;20038;-66
2021/06/19 04:15:52;;;;;;;3.05;2.40;;;;;;;;;;4967888;28;20041;-66
2021/06/19 04:18:17;;;;;;;3.20;2.20;;;;;;;;;;5001157;28;20035;-66
2021/06/19 04:20:43;;;;;;;4.15;2.50;;;;;;;;;;5002156;28;20036;-66
2021/06/19 04:23:08;;;;;;;3.10;2.35;;;;;;;;;;5002649;28;20038;-67
2021/06/19 04:25:34;;;;;;;3.72;2.28;;;;;;;;;;4975879;28;20469;-67
2021/06/19 04:27:59;;;;;;;2.90;2.15;;;;;;;;;;5003058;28;20549;-66
2021/06/19 04:30:25;;;;;;;3.08;2.38;;;;;;;;;;4984729;28;20046;-67
2021/06/19 04:32:54;;;;;;;3.28;2.30;;;;;;;;;;5002716;28;20057;-66
2021/06/19 04:35:20;;;;;;;5.03;2.35;;;;;;;;;;4985121;28;20512;-66
2021/06/19 04:37:46;;;;;;;2.83;2.30;;;;;;;;;;5002679;28;20027;-67
2021/06/19 04:40:23;;;;;;;2.88;2.25;;;;;;;;;;4985334;28;20339;-67
2021/06/19 04:43:06;;;;;;;3.33;2.30;;;;;;;;;;5002560;28;20050;-67
2021/06/19 04:45:31;;;;;;;3.42;2.35;;;;;;;;;;4982445;28;20042;-66
2021/06/19 04:48:00;;;;;;;3.45;1.95;;;;;;;;;;4955859;28;20026;-67
2021/06/19 04:50:26;;;;;;;3.22;2.08;;;;;;;;;;5002777;28;20046;-66
2021/06/19 04:52:51;;;;;;;3.25;2.30;;;;;;;;;;5002547;28;20026;-66
2021/06/19 04:55:18;;;;;;;4.00;2.30;;;;;;;;;;4963122;28;20036;-66
2021/06/19 04:57:44;;;;;;;3.47;2.20;;;;;;;;;;4959882;28;20057;-66
2021/06/19 05:00:10;;;;;;;3.47;2.00;;;;;;;;;;5002959;28;20057;-66
2021/06/19 05:02:36;;;;;;;2.03;1.67;;;;;;;;;;5002889;28;20042;-66
2021/06/19 05:05:01;;;;;;;2.90;1.40;;;;;;;;;;5002017;28;20041;-66
2021/06/19 05:07:27;;;;;;;2.47;1.45;;;;;;;;;;4961963;28;20120;-66
2021/06/19 05:09:52;;;;;;;1.50;1.30;;;;;;;;;;5001517;28;20093;-66
2021/06/19 05:12:18;;;;;;;2.63;1.42;;;;;;;;;;4980610;28;20038;-66
2021/06/19 05:14:43;;;;;;;2.33;1.30;;;;;;;;;;5001640;28;20034;-66
2021/06/19 05:17:09;;;;;;;2.25;1.20;;;;;;;;;;4983959;28;20042;-66
2021/06/19 05:19:34;;;;;;;1.20;1.02;;;;;;;;;;5002592;28;20041;-66
2021/06/19 05:22:00;;;;;;;1.52;1.00;;;;;;;;;;5002769;28;20560;-66
2021/06/19 05:24:25;;;;;;;1.88;0.95;;;;;;;;;;4984848;28;20039;-66
2021/06/19 05:26:51;;;;;;;1.83;1.10;;;;;;;;;;5002058;28;20030;-66
2021/06/19 05:29:16;;;;;;;1.23;0.90;;;;;;;;;;5002237;28;20478;-66
2021/06/19 05:31:42;;;;;;;1.88;0.90;;;;;;;;;;5002420;28;20084;-66
2021/06/19 05:34:07;;;;;;;1.58;0.95;;;;;;;;;;4992925;28;20049;-66
2021/06/19 05:36:33;;;;;;;1.77;1.20;;;;;;;;;;4989207;28;20041;-66
2021/06/19 05:38:58;;;;;;;1.60;1.00;;;;;;;;;;5005046;28;20041;-66
2021/06/19 05:41:24;;;;;;;1.00;0.90;;;;;;;;;;5005451;28;20545;-66
2021/06/19 05:43:49;;;;;;;1.10;1.00;;;;;;;;;;5005117;28;20424;-66
2021/06/19 05:46:14;;;;;;;0.95;0.80;;;;;;;;;;4988118;28;20075;-66
2021/06/19 05:48:40;;;;;;;1.08;0.82;;;;;;;;;;4988220;28;20050;-66
2021/06/19 05:51:05;;;;;;;1.00;0.80;;;;;;;;;;4987043;28;20082;-66
2021/06/19 05:53:31;;;;;;;1.45;1.02;;;;;;;;;;4989373;28;20536;-66
2021/06/19 05:55:56;;;;;;;1.33;1.02;;;;;;;;;;4990362;28;20039;-66
2021/06/19 05:58:22;;;;;;;1.23;0.77;;;;;;;;;;4992295;28;20034;-66
2021/06/19 06:00:47;;;;;;;1.25;1.00;;;;;;;;;;4986796;28;20027;-67
2021/06/19 06:03:13;;;;;;;1.25;0.90;;;;;;;;;;4989012;28;20033;-67
2021/06/19 06:05:38;;;;;;;1.60;0.90;;;;;;;;;;5004526;28;20756;-67
2021/06/19 06:08:04;;;;;;;1.15;0.95;;;;;;;;;;5003229;28;20045;-65
2021/06/19 06:10:29;;;;;;;1.15;0.95;;;;;;;;;;5005200;28;20093;-65
2021/06/19 06:12:56;;;;;;;2.13;1.17;;;;;;;;;;4964398;28;20126;-65
2021/06/19 06:15:22;;;;;;;1.02;0.93;;;;;;;;;;5005444;28;20509;-65
2021/06/19 06:17:48;;;;;;;1.00;0.90;;;;;;;;;;4969511;28;20027;-65
2021/06/19 06:20:13;;;;;;;1.30;0.90;;;;;;;;;;4969546;28;20042;-65
2021/06/19 06:22:39;;;;;;;1.70;1.23;;;;;;;;;;4985923;28;20042;-65
2021/06/19 06:25:05;;;;;;;1.40;1.00;;;;;;;;;;4979416;28;20034;-65
2021/06/19 06:27:30;;;;;;;1.55;1.05;;;;;;;;;;5003560;28;20062;-65
2021/06/19 06:29:56;;;;;;;1.17;1.00;;;;;;;;;;5001912;28;20042;-65
2021/06/19 06:32:21;;;;;;;2.08;1.20;;;;;;;;;;5003366;28;20030;-65
2021/06/19 06:34:46;;;;;;;1.38;1.25;;;;;;;;;;4979289;28;20066;-65
2021/06/19 06:37:12;;;;;;;2.72;1.40;;;;;;;;;;5004491;28;20027;-65
2021/06/19 06:39:37;;;;;;;1.83;1.08;;;;;;;;;;5004195;28;20085;-65
2021/06/19 06:42:03;;;;;;;2.40;1.45;;;;;;;;;;4970381;28;20491;-66
2021/06/19 06:44:29;;;;;;;2.17;1.40;;;;;;;;;;5003130;28;20038;-63
2021/06/19 06:46:55;;;;;;;1.50;1.10;;;;;;;;;;5003725;28;20065;-62
2021/06/19 06:49:20;;;;;;;2.50;1.20;;;;;;;;;;4991465;28;20545;-63
2021/06/19 06:51:46;;;;;;;2.05;1.33;;;;;;;;;;4978244;28;20034;-63
2021/06/19 06:54:11;;;;;;;2.72;1.25;;;;;;;;;;4955457;28;20026;-63
2021/06/19 06:56:37;;;;;;;1.77;1.40;;;;;;;;;;4978147;23;20038;-64
2021/06/19 06:59:02;;;;;;;1.63;1.10;;;;;;;;;;5031920;28;20041;-63
2021/06/19 07:01:28;;;;;;;1.63;1.20;;;;;;;;;;5014781;28;20073;-63
2021/06/19 07:03:58;;;;;;;2.50;1.27;;;;;;;;;;5031788;28;20030;-63
2021/06/19 07:06:23;;;;;;;1.67;1.15;;;;;;;;;;5031459;28;20041;-63
2021/06/19 07:08:49;;;;;;;2.45;1.20;;;;;;;;;;5020378;28;20053;-63
2021/06/19 07:11:14;;;;;;;2.70;1.27;;;;;;;;;;5021551;28;20041;-63
2021/06/19 07:13:40;;;;;;;1.33;1.10;;;;;;;;;;5023174;28;20038;-63
2021/06/19 07:16:06;;;;;;;1.92;1.20;;;;;;;;;;5018352;28;20042;-64
2021/06/19 07:18:32;;;;;;;1.70;1.20;;;;;;;;;;5024091;28;20021;-64
2021/06/19 07:20:58;;;;;;;2.40;1.50;;;;;;;;;;5004236;28;20037;-63
2021/06/19 07:23:25;;;;;;;2.13;1.10;;;;;;;;;;5018910;28;20054;-64
2021/06/19 07:25:52;;;;;;;1.42;1.13;;;;;;;;;;5014478;28;20045;-65
2021/06/19 07:28:17;;;;;;;1.50;1.40;;;;;;;;;;5014927;28;20125;-63
2021/06/19 07:30:43;;;;;;;2.05;1.30;;;;;;;;;;5019872;28;20530;-64
2021/06/19 07:33:08;;;;;;;1.55;1.25;;;;;;;;;;5021056;28;20096;-64
2021/06/19 07:35:33;;;;;;;1.90;1.48;;;;;;;;;;5004092;28;20437;-64
2021/06/19 07:37:59;;;;;;;2.53;1.30;;;;;;;;;;5002097;28;20038;-64
2021/06/19 07:40:26;;;;;;;1.58;1.45;;;;;;;;;;5018372;28;20044;-64
2021/06/19 07:42:52;;;;;;;3.17;1.40;;;;;;;;;;5019076;28;20058;-64
2021/06/19 07:45:17;;;;;;;2.88;1.30;;;;;;;;;;4994162;28;20511;-64
2021/06/19 07:47:43;;;;;;;1.63;1.30;;;;;;;;;;5020510;28;20609;-64
2021/06/19 07:50:09;;;;;;;1.88;1.45;;;;;;;;;;5002283;28;20037;-64
2021/06/19 07:52:34;;;;;;;2.63;1.42;;;;;;;;;;5011792;28;20456;-65
2021/06/19 07:54:59;;;;;;;2.97;1.40;;;;;;;;;;5002469;28;20061;-62
2021/06/19 07:57:25;;;;;;;3.03;1.35;;;;;;;;;;4999902;28;20471;-62
2021/06/19 07:59:51;;;;;;;2.47;1.50;;;;;;;;;;5018516;28;20181;-62
2021/06/19 08:02:17;;;;;;;1.30;1.20;;;;;;;;;;5018457;28;20038;-63
2021/06/19 08:04:43;;;;;;;2.10;1.33;;;;;;;;;;5015723;28;20042;-63
2021/06/19 08:07:10;;;;;;;1.80;1.33;;;;;;;;;;5017878;28;20043;-63
2021/06/19 08:09:35;;;;;;;2.70;1.50;;;;;;;;;;5016525;28;20045;-64
2021/06/19 08:12:01;;;;;;;1.90;1.23;;;;;;;;;;5000187;28;20034;-63
2021/06/19 08:14:26;;;;;;;1.70;1.38;;;;;;;;;;5014903;28;20032;-62
2021/06/19 08:16:54;;;;;;;1.92;1.20;;;;;;;;;;5018452;28;20037;-63
2021/06/19 08:19:20;;;;;;;2.20;1.50;;;;;;;;;;5022051;28;20038;-62
2021/06/19 08:21:45;;;;;;;2.72;1.30;;;;;;;;;;5016261;28;20089;-63
2021/06/19 08:24:11;;;;;;;1.85;1.30;;;;;;;;;;5002792;28;20033;-62
2021/06/19 08:26:37;;;;;;;1.42;1.25;;;;;;;;;;5015963;28;20048;-63
2021/06/19 08:29:05;;;;;;;1.88;1.10;;;;;;;;;;5017465;28;20043;-63
2021/06/19 08:31:35;;;;;;;1.63;0.90;;;;;;;;;;5000403;28;20217;-62
2021/06/19 08:34:01;;;;;;;1.70;1.13;;;;;;;;;;5001650;28;20120;-63
2021/06/19 08:36:26;;;;;;;1.90;1.30;;;;;;;;;;5015340;28;20038;-63
2021/06/19 08:38:52;;;;;;;2.03;1.10;;;;;;;;;;5016933;28;20038;-62
2021/06/19 08:41:17;;;;;;;1.35;1.13;;;;;;;;;;5017206;28;20038;-62
2021/06/19 08:43:43;;;;;;;2.70;1.42;;;;;;;;;;5001562;28;20093;-64
2021/06/19 08:46:09;;;;;;;1.27;1.15;;;;;;;;;;5019421;28;20186;-64
2021/06/19 08:48:36;;;;;;;1.95;1.20;;;;;;;;;;5002754;28;20461;-64
2021/06/19 08:51:02;;;;;;;2.10;0.98;;;;;;;;;;5000546;28;20038;-64
2021/06/19 08:53:28;;;;;;;1.58;1.00;;;;;;;;;;5016391;28;20053;-64
2021/06/19 08:55:53;;;;;;;2.10;1.10;;;;;;;;;;5006103;28;20049;-64
2021/06/19 08:58:19;;;;;;;1.77;1.10;;;;;;;;;;5017794;28;20030;-64
2021/06/19 09:00:45;;;;;;;1.25;0.95;;;;;;;;;;5019890;28;20041;-64
2021/06/19 09:03:26;;;;;;;1.08;0.88;;;;;;;;;;5018293;28;20469;-64
2021/06/19 09:05:52;;;;;;;2.22;1.08;;;;;;;;;;5001742;28;20096;-64
2021/06/19 09:08:19;;;;;;;1.02;0.90;;;;;;;;;;5018802;28;20025;-64
2021/06/19 09:10:45;;;;;;;2.35;0.80;;;;;;;;;;5005912;28;20049;-64
2021/06/19 09:13:11;;;;;;;1.23;0.90;;;;;;;;;;5002350;28;20120;-64
2021/06/19 09:15:38;;;;;;;2.17;0.82;;;;;;;;;;4986554;28;20034;-64
2021/06/19 09:18:09;;;;;;;1.40;1.00;;;;;;;;;;5014612;28;20490;-64
2021/06/19 09:20:35;;;;;;;1.08;0.73;;;;;;;;;;4999926;28;20073;-64
2021/06/19 09:23:05;;;;;;;1.67;0.90;;;;;;;;;;5016591;28;20065;-64
2021/06/19 09:25:30;;;;;;;1.52;0.80;;;;;;;;;;5013607;28;20224;-64
2021/06/19 09:27:57;;;;;;;1.48;0.90;;;;;;;;;;5017851;28;20093;-63
2021/06/19 09:30:23;;;;;;;0.93;0.77;;;;;;;;;;5017289;28;20051;-64
2021/06/19 09:32:52;;;;;;;0.85;0.70;;;;;;;;;;4999124;28;20069;-64
2021/06/19 09:35:20;;;;;;;0.68;0.68;;;;;;;;;;5016445;28;20114;-64
2021/06/19 09:37:47;;;;;;;1.88;0.80;;;;;;;;;;5001445;28;20034;-64
2021/06/19 09:40:22;;;;;;;1.58;0.73;;;;;;;;;;5015699;28;20029;-64
2021/06/19 09:42:48;;;;;;;0.88;0.70;;;;;;;;;;5017402;28;20026;-64
2021/06/19 09:45:18;;;;;;;0.95;0.70;;;;;;;;;;5007058;28;20512;-64
2021/06/19 09:47:44;;;;;;;0.70;0.65;;;;;;;;;;5016291;28;20042;-64
2021/06/19 09:50:09;;;;;;;0.93;0.60;;;;;;;;;;5003221;28;20046;-64
2021/06/19 09:52:35;;;;;;;1.02;0.70;;;;;;;;;;5017745;28;20101;-64
2021/06/19 09:55:00;;;;;;;1.30;0.82;;;;;;;;;;5018070;28;20129;-64
2021/06/19 09:57:45;;;;;;;0.50;0.47;;;;;;;;;;5015486;28;20057;-64
2021/06/19 10:00:18;;;;;;;0.88;0.80;;;;;;;;;;5019618;28;20042;-64
2021/06/19 10:02:43;;;;;;;0.75;0.75;;;;;;;;;;4979994;28;20053;-67
2021/06/19 10:05:09;;;;;;;1.00;0.60;;;;;;;;;;5016619;28;20060;-67
2021/06/19 10:07:36;;;;;;;1.27;0.68;;;;;;;;;;5013501;28;20033;-68
2021/06/19 10:10:11;;;;;;;1.17;0.70;;;;;;;;;;5017544;28;20069;-67
2021/06/19 10:12:37;;;;;;;0.75;0.47;;;;;;;;;;5007525;28;20121;-72
2021/06/19 10:15:04;;;;;;;1.23;0.60;;;;;;;;;;5020785;28;20038;-73
2021/06/19 10:17:37;;;;;;;0.80;0.60;;;;;;;;;;5021200;28;20038;-74
2021/06/19 10:20:04;;;;;;;0.63;0.63;;;;;;;;;;4971222;28;20076;-72
2021/06/19 10:22:31;;;;;;;1.55;0.70;;;;;;;;;;5021044;28;20146;-72
2021/06/19 10:24:59;;;;;;;0.75;0.60;;;;;;;;;;5023497;28;20113;-72
2021/06/19 10:27:29;;;;;;;1.02;0.60;;;;;;;;;;5011358;28;20037;-72
2021/06/19 10:29:54;;;;;;;1.48;0.55;;;;;;;;;;4993357;28;20051;-73
2021/06/19 10:32:48;;;;;;;0.63;0.57;;;;;;;;;;5017327;28;20121;-73
2021/06/19 10:35:23;;;;;;;2.10;0.57;;;;;;;;;;5017032;28;20031;-73
2021/06/19 10:37:50;;;;;;;1.15;0.60;;;;;;;;;;5010253;28;20061;-73
2021/06/19 10:40:28;;;;;;;1.30;0.68;;;;;;;;;;4993119;28;20143;-74
2021/06/19 10:43:14;;;;;;;1.42;0.57;;;;;;;;;;5021975;28;20042;-74
2021/06/19 10:45:45;;;;;;;0.75;0.70;;;;;;;;;;5005994;28;20040;-73
2021/06/19 10:48:12;;;;;;;0.50;0.50;;;;;;;;;;4993693;28;20905;-73
2021/06/19 10:50:49;;;;;;;0.63;0.50;;;;;;;;;;5000612;28;20844;-73
2021/06/19 10:53:16;;;;;;;1.00;0.50;;;;;;;;;;5011308;28;20034;-73
2021/06/19 10:55:44;;;;;;;0.80;0.60;;;;;;;;;;5019971;28;20037;-73
2021/06/19 10:58:34;;;;;;;1.08;0.75;;;;;;;;;;4995907;28;20070;-73
2021/06/19 11:01:00;;;;;;;1.70;0.70;;;;;;;;;;5004424;28;20513;-73
2021/06/19 11:03:44;;;;;;;0.98;0.55;;;;;;;;;;5009495;28;20030;-73
2021/06/19 11:06:25;;;;;;;0.93;0.65;;;;;;;;;;5001692;28;20034;-73
2021/06/19 11:09:00;;;;;;;1.07;0.60;;;;;;;;;;5017248;28;20120;-72
2021/06/19 11:11:51;;;;;;;0.50;0.50;;;;;;;;;;5021651;28;20026;-73
2021/06/19 11:14:47;;;;;;;1.85;0.50;;;;;;;;;;5006025;28;20038;-72
2021/06/19 11:17:21;;;;;;;0.57;0.57;;;;;;;;;;5006573;28;20057;-72
2021/06/19 11:19:55;;;;;;;0.40;0.40;;;;;;;;;;5019242;28;20061;-73
2021/06/19 11:22:36;;;;;;;0.93;0.50;;;;;;;;;;5023466;28;20033;-73
2021/06/19 11:25:28;;;;;;;0.82;0.50;;;;;;;;;;5021013;28;20042;-73
2021/06/19 11:27:57;;;;;;;0.70;0.50;;;;;;;;;;5021447;28;20103;-73
2021/06/19 11:30:38;;;;;;;0.50;0.50;;;;;;;;;;5016934;28;20042;-73
2021/06/19 11:33:15;;;;;;;0.60;0.60;;;;;;;;;;5015944;28;20064;-73
2021/06/19 11:35:41;;;;;;;0.60;0.50;;;;;;;;;;5019240;28;20425;-73
2021/06/19 11:38:06;;;;;;;0.70;0.45;;;;;;;;;;5002097;28;20034;-73
2021/06/19 11:40:33;;;;;;;0.50;0.50;;;;;;;;;;5005067;28;20040;-73
2021/06/19 11:42:59;;;;;;;0.57;0.50;;;;;;;;;;5018466;28;20043;-73
2021/06/19 11:45:24;;;;;;;0.80;0.60;;;;;;;;;;5000123;28;20030;-73
2021/06/19 11:48:07;;;;;;;0.40;0.40;;;;;;;;;;4986728;28;20049;-73
2021/06/19 11:50:42;;;;;;;0.43;0.43;;;;;;;;;;4994729;28;20590;-72
2021/06/19 11:53:28;;;;;;;0.68;0.50;;;;;;;;;;5005988;28;20041;-73
2021/06/19 11:56:13;;;;;;;0.63;0.50;;;;;;;;;;5006926;28;20033;-73
2021/06/19 11:58:55;;;;;;;2.17;0.60;;;;;;;;;;5018957;28;20044;-73
2021/06/19 12:01:30;;;;;;;0.50;0.47;;;;;;;;;;5017376;28;20041;-73
2021/06/19 12:03:59;;;;;;;1.02;0.68;;;;;;;;;;5019383;28;20042;-73
2021/06/19 12:06:38;;;;;;;0.40;0.40;;;;;;;;;;5003704;28;20041;-72
2021/06/19 12:09:13;;;;;;;0.50;0.50;;;;;;;;;;4992234;28;20052;-73
2021/06/19 12:11:39;;;;;;;0.52;0.50;;;;;;;;;;4976444;28;20037;-73
2021/06/19 12:14:25;;;;;;;0.60;0.57;;;;;;;;;;5018157;28;20042;-73
2021/06/19 12:16:54;;;;;;;0.60;0.60;;;;;;;;;;5020438;28;20125;-73
2021/06/19 12:19:21;;;;;;;0.57;0.55;;;;;;;;;;4986500;28;20038;-73
2021/06/19 12:21:47;;;;;;;1.80;0.60;;;;;;;;;;4998798;28;21395;-74
2021/06/19 12:24:32;;;;;;;1.02;0.55;;;;;;;;;;5019497;28;20038;-74
2021/06/19 12:27:04;;;;;;;1.23;0.70;;;;;;;;;;4980940;28;20035;-75
2021/06/19 12:29:37;;;;;;;1.00;0.60;;;;;;;;;;5001642;28;20157;-75
2021/06/19 12:32:23;;;;;;;1.25;0.50;;;;;;;;;;5018683;28;20051;-73
2021/06/19 12:34:48;;;;;;;1.40;0.70;;;;;;;;;;5006887;28;20117;-73
2021/06/19 12:37:15;;;;;;;0.82;0.70;;;;;;;;;;4990349;28;20514;-73
2021/06/19 12:39:40;;;;;;;1.15;0.52;;;;;;;;;;4983805;28;20896;-73
2021/06/19 12:42:07;;;;;;;0.90;0.70;;;;;;;;;;5002715;28;20092;-73
2021/06/19 12:44:32;;;;;;;0.57;0.50;;;;;;;;;;4986399;28;20038;-73
2021/06/19 12:47:17;;;;;;;0.65;0.60;;;;;;;;;;5018380;28;20042;-73
2021/06/19 12:49:53;;;;;;;1.40;0.60;;;;;;;;;;5000044;28;20040;-73
2021/06/19 12:52:18;;;;;;;0.45;0.40;;;;;;;;;;5022660;28;20046;-77
2021/06/19 12:54:44;;;;;;;1.27;0.90;;;;;;;;;;4993310;28;20026;-71
2021/06/19 12:57:15;;;;;;;2.45;0.75;;;;;;;;;;5019345;28;20064;-70
2021/06/19 12:59:47;;;;;;;1.13;0.68;;;;;;;;;;5000847;28;20043;-68
2021/06/19 13:02:13;;;;;;;0.63;0.60;;;;;;;;;;5016897;28;20039;-69
2021/06/19 13:04:38;;;;;;;1.05;0.70;;;;;;;;;;5016740;28;20022;-73
2021/06/19 13:07:13;;;;;;;0.98;0.75;;;;;;;;;;5015072;28;20039;-72
2021/06/19 13:09:48;;;;;;;0.63;0.60;;;;;;;;;;5005784;28;20654;-71
2021/06/19 13:12:15;;;;;;;0.73;0.60;;;;;;;;;;5016497;28;20149;-72
2021/06/19 13:14:43;;;;;;;0.88;0.70;;;;;;;;;;5018357;28;20099;-72
2021/06/19 13:17:18;;;;;;;0.70;0.70;;;;;;;;;;5017119;28;20034;-72
2021/06/19 13:19:44;;;;;;;0.60;0.60;;;;;;;;;;4991050;28;20499;-68
2021/06/19 13:22:09;;;;;;;1.95;0.80;;;;;;;;;;5020713;28;20034;-69
2021/06/19 13:24:36;;;;;;;1.52;0.80;;;;;;;;;;5004753;28;20042;-71
2021/06/19 13:27:10;;;;;;;1.13;0.60;;;;;;;;;;5007196;28;20522;-73
2021/06/19 13:29:36;;;;;;;0.80;0.80;;;;;;;;;;5018359;28;20050;-71
2021/06/19 13:32:02;;;;;;;0.57;0.57;;;;;;;;;;4990872;28;20022;-75
2021/06/19 13:34:28;;;;;;;0.60;0.60;;;;;;;;;;4983791;28;20035;-70
2021/06/19 13:37:12;;;;;;;1.83;0.75;;;;;;;;;;5018520;28;20034;-71
2021/06/19 13:39:39;;;;;;;1.40;0.57;;;;;;;;;;5007181;28;20054;-69
2021/06/19 13:42:09;;;;;;;1.25;0.70;;;;;;;;;;5017985;28;20042;-69
2021/06/19 13:44:40;;;;;;;0.80;0.73;;;;;;;;;;5014541;28;20033;-71
2021/06/19 13:47:06;;;;;;;1.23;0.70;;;;;;;;;;5005635;28;20034;-71
2021/06/19 13:49:31;;;;;;;1.40;0.70;;;;;;;;;;4972222;28;20045;-71
2021/06/19 13:52:01;;;;;;;0.80;0.80;;;;;;;;;;5001833;28;20402;-71
2021/06/19 13:54:27;;;;;;;0.93;0.75;;;;;;;;;;4988885;28;20038;-71
2021/06/19 13:56:53;;;;;;;1.00;0.90;;;;;;;;;;5007881;28;20042;-70
2021/06/19 13:59:18;;;;;;;0.77;0.77;;;;;;;;;;5013555;28;20046;-70
2021/06/19 14:01:44;;;;;;;0.68;0.65;;;;;;;;;;4992310;28;20042;-70
2021/06/19 14:04:10;;;;;;;0.98;0.80;;;;;;;;;;4992785;28;20121;-70
2021/06/19 14:06:36;;;;;;;0.70;0.70;;;;;;;;;;5009579;28;20052;-70
2021/06/19 14:09:02;;;;;;;0.77;0.70;;;;;;;;;;5017418;28;20165;-72
2021/06/19 14:11:28;;;;;;;0.60;0.60;;;;;;;;;;4985312;28;20042;-70
2021/06/19 14:13:54;;;;;;;0.80;0.70;;;;;;;;;;5003062;28;20050;-67
2021/06/19 14:16:20;;;;;;;0.88;0.60;;;;;;;;;;5002110;28;20038;-61
